Time;durP1;ratioP1;P1;durP2;ratioP2;P2;SDS_P1;SDS_P2;PMS_P1;PMS_P2;Temp;Humidity;BMP_temperature;BMP_pressure;BME280_temperature;BME280_humidity;BME280_pressure;Samples;Min_cycle;Max_cycle;Signal;HPM_P1;HPM_P2
2023/06/20 00:02:28;;;;;;;23.30;15.20;;;;;;;19.46;53.95;100788.59;105186;1294;61207;-83
2023/06/20 00:05:15;;;;;;;15.90;14.00;;;;;;;19.44;53.94;100789.36;105147;1288;60093;-83
2023/06/20 00:08:01;;;;;;;16.40;14.40;;;;;;;19.40;54.03;100787.81;105360;1288;73158;-84
2023/06/20 00:10:47;;;;;;;15.40;14.00;;;;;;;19.39;54.19;100793.81;105363;1287;67268;-84
2023/06/20 00:13:39;;;;;;;16.80;15.00;;;;;;;19.37;54.23;100795.33;105304;1289;74133;-84
2023/06/20 00:16:25;;;;;;;16.20;14.60;;;;;;;19.35;54.30;100797.17;105179;1288;61199;-83
2023/06/20 00:19:12;;;;;;;20.00;14.40;;;;;;;19.34;54.42;100793.71;105271;1288;61381;-83
2023/06/20 00:21:58;;;;;;;16.10;14.50;;;;;;;19.31;54.50;100790.05;105241;1288;73418;-83
2023/06/20 00:24:44;;;;;;;15.40;13.50;;;;;;;19.26;54.64;100791.69;105156;1288;69114;-83
2023/06/20 00:27:31;;;;;;;15.40;13.90;;;;;;;19.28;54.69;100792.61;105240;1289;71360;-83
2023/06/20 00:30:22;;;;;;;14.90;13.50;;;;;;;19.28;54.73;100792.95;105234;1288;61454;-84
2023/06/20 00:33:09;;;;;;;16.00;14.30;;;;;;;19.18;54.67;100785.66;104988;1289;61217;-84
2023/06/20 00:35:55;;;;;;;17.90;16.10;;;;;;;19.03;54.87;100786.74;105388;1288;73303;-84
2023/06/20 00:38:48;;;;;;;16.50;14.90;;;;;;;18.98;55.06;100793.08;105412;1288;67569;-83
2023/06/20 00:41:35;;;;;;;15.10;13.80;;;;;;;18.99;55.17;100789.54;105327;1288;71579;-83
2023/06/20 00:44:21;;;;;;;15.90;14.10;;;;;;;19.00;55.22;100789.84;105154;1288;61141;-83
2023/06/20 00:47:09;;;;;;;17.10;15.40;;;;;;;18.98;55.22;100787.13;105316;1289;61655;-83
2023/06/20 00:49:56;;;;;;;16.00;14.50;;;;;;;18.99;55.42;100789.37;105212;1288;74406;-83
2023/06/20 00:52:48;;;;;;;17.80;15.30;;;;;;;18.99;55.45;100789.01;105193;1288;67127;-83
2023/06/20 00:55:36;;;;;;;16.60;15.10;;;;;;;18.97;55.40;100785.44;105209;1288;71158;-83
2023/06/20 00:58:22;;;;;;;16.60;15.20;;;;;;;18.96;55.54;100783.57;105216;1286;59386;-83
2023/06/20 01:01:08;;;;;;;17.20;15.40;;;;;;;18.94;55.66;100782.27;105178;1294;59560;-83
2023/06/20 01:03:56;;;;;;;21.80;18.10;;;;;;;18.93;55.57;100779.88;105212;1288;74935;-83
2023/06/20 01:06:59;;;;;;;18.20;15.70;;;;;;;18.90;55.65;100780.38;105324;1288;68253;-83
2023/06/20 01:09:59;;;;;;;18.00;16.00;;;;;;;18.84;55.71;100780.98;105335;1288;71681;-83
2023/06/20 01:12:55;;;;;;;22.30;16.30;;;;;;;18.82;55.80;100780.20;105404;1288;61119;-84
2023/06/20 01:16:25;;;;;;;18.70;16.40;;;;;;;18.77;55.88;100775.89;105263;1288;61163;-83
2023/06/20 01:19:33;;;;;;;17.90;16.20;;;;;;;18.65;55.94;100780.70;105354;1288;73221;-83
2023/06/20 01:22:57;;;;;;;18.70;15.20;;;;;;;18.60;55.95;100781.11;105336;1288;67491;-84
2023/06/20 01:26:02;;;;;;;15.20;13.70;;;;;;;18.55;55.98;100783.23;105379;1291;74194;-83
2023/06/20 01:29:09;;;;;;;15.10;13.70;;;;;;;18.48;56.08;100783.86;105224;1286;61098;-84
2023/06/20 01:32:00;;;;;;;17.80;16.10;;;;;;;18.44;56.30;100783.56;105322;1291;62597;-83
2023/06/20 01:34:50;;;;;;;16.50;14.60;;;;;;;18.43;56.28;100786.02;105393;1288;73113;-83
2023/06/20 01:37:40;;;;;;;17.10;15.30;;;;;;;18.38;56.40;100784.34;105211;1291;67196;-84
2023/06/20 01:40:26;;;;;;;20.10;16.50;;;;;;;18.30;56.42;100780.71;105278;1289;71202;-84
2023/06/20 01:43:14;;;;;;;16.40;14.80;;;;;;;18.22;56.57;100778.12;105324;1288;61419;-84
2023/06/20 01:46:04;;;;;;;16.00;14.40;;;;;;;18.17;56.67;100778.02;105014;1288;293500;-83
2023/06/20 01:48:52;;;;;;;17.00;14.70;;;;;;;18.17;56.74;100776.26;105260;1287;73259;-84
2023/06/20 01:51:40;;;;;;;16.30;14.70;;;;;;;18.16;56.76;100776.47;105344;1288;67342;-84
2023/06/20 01:54:29;;;;;;;17.70;14.80;;;;;;;18.17;56.87;100772.44;105254;1288;71674;-84
2023/06/20 01:57:17;;;;;;;16.50;15.00;;;;;;;18.14;56.82;100769.77;105334;1289;61361;-83
2023/06/20 02:00:07;;;;;;;15.90;14.40;;;;;;;18.11;56.96;100769.39;105238;1286;61243;-84
2023/06/20 02:02:56;;;;;;;16.90;15.10;;;;;;;18.09;57.04;100771.73;105319;1288;73336;-84
2023/06/20 02:05:44;;;;;;;17.60;15.60;;;;;;;18.04;57.01;100771.61;105353;1288;67228;-84
2023/06/20 02:08:31;;;;;;;17.70;16.00;;;;;;;17.97;57.08;100771.58;105259;1289;71938;-84
2023/06/20 02:11:19;;;;;;;15.90;14.30;;;;;;;17.93;57.19;100768.96;105326;1289;61287;-84
2023/06/20 02:14:07;;;;;;;17.00;15.20;;;;;;;17.93;57.16;100771.57;105217;1286;59615;-84
2023/06/20 02:16:56;;;;;;;21.10;15.20;;;;;;;17.90;57.19;100774.69;105324;1287;74465;-83
2023/06/20 02:19:42;;;;;;;16.30;14.80;;;;;;;17.89;57.28;100770.18;105236;1289;68002;-83
2023/06/20 02:22:29;;;;;;;16.40;14.90;;;;;;;17.87;57.23;100768.52;105233;1289;70600;-83
2023/06/20 02:25:26;;;;;;;16.30;14.80;;;;;;;17.85;57.41;100765.09;105242;1288;61059;-84
2023/06/20 02:28:14;;;;;;;18.00;16.20;;;;;;;17.86;57.35;100762.79;105306;1287;59925;-83
2023/06/20 02:31:02;;;;;;;17.20;15.50;;;;;;;17.83;57.43;100760.84;105353;1288;74176;-83
2023/06/20 02:33:53;;;;;;;16.90;15.10;;;;;;;17.76;57.46;100759.56;105321;1288;67180;-83
2023/06/20 02:36:43;;;;;;;18.50;16.70;;;;;;;17.73;57.56;100755.00;105321;1288;71422;-83
2023/06/20 02:39:29;;;;;;;18.10;16.30;;;;;;;17.70;57.63;100756.35;105240;1288;63387;-83
2023/06/20 02:42:17;;;;;;;19.20;17.30;;;;;;;17.72;57.81;100759.05;105208;1288;61149;-83
2023/06/20 02:45:03;;;;;;;19.00;17.10;;;;;;;17.76;57.86;100761.68;105356;1288;73407;-83
2023/06/20 02:48:02;;;;;;;18.70;16.40;;;;;;;17.76;57.88;100758.86;105341;1288;67625;-84
2023/06/20 02:51:10;;;;;;;17.80;15.90;;;;;;;17.75;57.98;100760.66;105336;1289;72565;-84
2023/06/20 02:54:04;;;;;;;19.20;17.10;;;;;;;17.76;58.03;100758.20;105389;1288;61165;-83
2023/06/20 02:56:53;;;;;;;17.50;15.90;;;;;;;17.78;58.14;100760.02;105388;1291;59253;-83
2023/06/20 02:59:44;;;;;;;17.60;15.80;;;;;;;17.77;58.12;100757.09;105338;1286;73484;-83
2023/06/20 03:02:31;;;;;;;16.80;15.20;;;;;;;17.78;58.21;100758.62;105401;1288;67091;-83
2023/06/20 03:05:20;;;;;;;16.70;15.20;;;;;;;17.79;58.25;100758.73;105328;1287;72159;-83
2023/06/20 03:08:07;;;;;;;20.90;16.10;;;;;;;17.82;58.12;100760.02;105471;1289;61133;-83
2023/06/20 03:10:57;;;;;;;21.10;16.50;;;;;;;17.84;58.28;100758.86;105271;1288;61313;-83
2023/06/20 03:13:44;;;;;;;18.70;16.90;;;;;;;17.85;58.31;100764.93;105277;1288;73302;-83
2023/06/20 03:16:30;;;;;;;20.10;17.20;;;;;;;17.86;58.42;100768.02;105340;1289;66654;-84
2023/06/20 03:19:17;;;;;;;17.50;15.90;;;;;;;17.88;58.38;100770.05;105305;1289;71523;-84
2023/06/20 03:22:03;;;;;;;18.40;16.60;;;;;;;17.90;58.43;100771.53;105277;1288;61072;-84
2023/06/20 03:24:49;;;;;;;18.80;16.90;;;;;;;17.92;58.50;100772.85;105313;1291;61182;-84
2023/06/20 03:27:36;;;;;;;18.20;16.30;;;;;;;17.94;58.57;100774.30;105446;1291;73301;-84
2023/06/20 03:30:22;;;;;;;17.70;15.90;;;;;;;17.97;58.67;100777.17;105256;1289;67200;-84
2023/06/20 03:33:08;;;;;;;18.90;16.50;;;;;;;18.00;58.68;100779.49;105362;1291;71088;-84
2023/06/20 03:35:54;;;;;;;20.40;16.00;;;;;;;18.03;58.76;100780.73;105386;1288;63060;-84
2023/06/20 03:38:42;;;;;;;16.80;15.20;;;;;;;18.07;58.60;100781.09;105288;1288;61807;-84
2023/06/20 03:41:28;;;;;;;17.30;15.70;;;;;;;18.09;58.85;100772.95;105378;1289;73610;-84
2023/06/20 03:44:14;;;;;;;17.60;15.80;;;;;;;18.12;58.88;100775.27;105377;1287;69972;-84
2023/06/20 03:47:01;;;;;;;17.20;15.40;;;;;;;18.13;58.87;100776.08;105374;1287;71286;-84
2023/06/20 03:49:47;;;;;;;17.60;15.80;;;;;;;18.16;58.94;100777.55;105257;1288;61416;-84
2023/06/20 03:52:33;;;;;;;16.70;15.20;;;;;;;18.17;58.98;100776.25;105348;1288;59222;-84
2023/06/20 03:55:19;;;;;;;17.60;15.90;;;;;;;18.20;59.09;100777.33;105361;1289;74304;-84
2023/06/20 03:58:05;;;;;;;18.10;16.40;;;;;;;18.23;59.04;100781.72;105208;1289;67908;-84
2023/06/20 04:00:52;;;;;;;17.30;15.80;;;;;;;18.29;59.18;100781.98;105394;1288;71089;-84
2023/06/20 04:03:38;;;;;;;17.50;15.80;;;;;;;18.36;59.27;100778.35;105188;1294;61681;-85
2023/06/20 04:06:30;;;;;;;17.20;15.50;;;;;;;18.42;59.28;100781.72;105289;1291;61274;-84
2023/06/20 04:09:19;;;;;;;15.80;14.30;;;;;;;18.52;59.24;100778.98;105362;1286;77316;-86
2023/06/20 04:12:06;;;;;;;16.30;14.80;;;;;;;18.72;59.49;100779.86;105336;1288;69168;-85
2023/06/20 04:14:53;;;;;;;;;;;;;;;18.94;59.56;100777.58;105440;1288;72589;-86
2023/06/20 04:17:40;;;;;;;17.60;15.80;;;;;;;19.07;59.42;100777.09;105299;1292;59180;-86
2023/06/20 04:20:27;;;;;;;17.30;15.60;;;;;;;19.19;59.41;100780.37;105408;1289;61200;-86
2023/06/20 04:23:13;;;;;;;17.50;15.80;;;;;;;19.27;59.44;100782.54;105299;1286;73244;-85
2023/06/20 04:25:59;;;;;;;17.40;15.80;;;;;;;19.40;59.53;100783.98;105398;1288;70017;-85
2023/06/20 04:28:45;;;;;;;23.00;20.60;;;;;;;19.67;59.44;100780.73;105328;1289;74026;-86
2023/06/20 04:31:31;;;;;;;23.30;19.10;;;;;;;19.94;59.30;100786.13;105379;1290;60985;-86
2023/06/20 04:34:22;;;;;;;24.80;19.60;;;;;;;20.07;59.25;100792.81;105348;1291;61208;-85
2023/06/20 04:37:09;;;;;;;27.50;18.60;;;;;;;20.16;59.28;100787.63;105400;1291;75156;-86
2023/06/20 04:39:57;;;;;;;22.00;17.40;;;;;;;20.25;59.33;100788.34;105410;1291;67171;-86
2023/06/20 04:42:45;;;;;;;20.80;18.00;;;;;;;20.36;59.41;100790.36;105416;1292;72506;-86
2023/06/20 04:45:31;;;;;;;20.70;17.40;;;;;;;20.48;59.46;100788.86;105637;1288;61156;-86
2023/06/20 04:48:17;;;;;;;20.20;18.20;;;;;;;20.59;59.50;100789.48;105417;1288;61193;-86
2023/06/20 04:51:07;;;;;;;19.90;17.40;;;;;;;20.71;59.45;100787.78;105234;1290;77386;-85
2023/06/20 04:53:53;;;;;;;19.60;17.70;;;;;;;20.84;59.44;100781.57;105239;1289;68584;-86
2023/06/20 04:56:42;;;;;;;18.90;17.00;;;;;;;21.05;59.47;100789.54;105355;1289;71391;-86
2023/06/20 04:59:29;;;;;;;18.70;16.70;;;;;;;21.30;59.33;100784.59;105262;1289;60036;-86
2023/06/20 05:02:15;;;;;;;22.10;18.10;;;;;;;21.67;59.37;100780.66;105282;1291;61288;-86
2023/06/20 05:05:01;;;;;;;18.00;16.50;;;;;;;22.11;59.47;100779.54;105254;1295;73267;-86
2023/06/20 05:07:47;;;;;;;22.20;17.50;;;;;;;22.62;59.18;100778.13;105276;1289;67195;-86
2023/06/20 05:10:33;;;;;;;17.60;15.90;;;;;;;23.15;59.13;100778.67;105384;1290;72078;-86
2023/06/20 05:13:19;;;;;;;18.30;16.60;;;;;;;23.63;58.85;100776.04;105276;1292;61184;-86
2023/06/20 05:16:06;;;;;;;17.10;15.50;;;;;;;24.02;58.65;100779.15;105348;1289;61103;-86
2023/06/20 05:18:52;;;;;;;17.30;15.40;;;;;;;24.40;58.36;100780.66;105378;1290;73175;-86
2023/06/20 05:21:38;;;;;;;17.20;15.50;;;;;;;24.82;58.07;100784.34;105346;1289;67451;-86
2023/06/20 05:24:24;;;;;;;19.40;14.70;;;;;;;25.26;57.88;100786.36;105167;1289;71485;-86
2023/06/20 05:27:10;;;;;;;18.50;14.70;;;;;;;25.74;57.74;100785.35;105331;1290;59640;-86
2023/06/20 05:29:56;;;;;;;16.40;14.80;;;;;;;26.25;57.38;100787.78;105460;1288;61253;-86
2023/06/20 05:32:42;;;;;;;15.40;13.90;;;;;;;26.77;57.19;100787.08;105380;1290;77461;-86
2023/06/20 05:35:29;;;;;;;;;;;;;;;27.31;56.90;100792.23;105212;1291;67248;-86
2023/06/20 05:38:15;;;;;;;;;;;;;;;27.79;56.58;100791.54;105242;1289;72589;-86
2023/06/20 05:41:02;;;;;;;14.20;12.80;;;;;;;28.26;56.37;100792.95;105310;1289;61237;-86
2023/06/20 05:43:48;;;;;;;14.70;13.40;;;;;;;28.68;56.29;100795.79;105185;1289;61188;-86
2023/06/20 05:46:34;;;;;;;14.70;12.80;;;;;;;29.01;55.99;100797.75;105434;1286;73348;-86
2023/06/20 05:49:21;;;;;;;14.10;12.90;;;;;;;29.25;55.75;100799.78;105273;1289;67145;-86
2023/06/20 05:52:08;;;;;;;13.50;12.20;;;;;;;29.47;55.42;100795.70;105293;1288;71896;-86
2023/06/20 05:54:54;;;;;;;13.00;12.00;;;;;;;29.73;54.85;100803.50;105197;1288;61274;-86
2023/06/20 05:57:40;;;;;;;11.90;10.80;;;;;;;30.05;54.39;100810.52;105328;1288;61102;-86
2023/06/20 06:00:26;;;;;;;12.80;11.50;;;;;;;30.29;53.92;100813.13;105245;1289;75505;-86
2023/06/20 06:03:13;;;;;;;13.20;12.10;;;;;;;30.57;53.43;100814.70;105281;1289;67723;-86
2023/06/20 06:06:00;;;;;;;12.50;11.40;;;;;;;30.90;53.11;100820.14;105324;1288;75396;-87
2023/06/20 06:08:47;;;;;;;12.10;11.20;;;;;;;31.19;52.53;100826.78;105139;1292;59337;-86
2023/06/20 06:11:33;;;;;;;12.60;11.70;;;;;;;31.44;52.30;100825.44;105346;1288;59239;-87
2023/06/20 06:14:19;;;;;;;12.50;11.10;;;;;;;31.69;51.91;100826.02;105431;1290;73129;-86
2023/06/20 06:17:05;;;;;;;11.90;10.90;;;;;;;31.99;51.59;100824.45;105481;1288;71926;-86
2023/06/20 06:19:51;;;;;;;;;;;;;;;32.26;50.97;100825.94;105286;1292;71559;-86
2023/06/20 06:22:38;;;;;;;12.20;11.10;;;;;;;32.49;50.78;100831.60;105368;1288;61276;-86
2023/06/20 06:25:24;;;;;;;13.70;11.70;;;;;;;32.64;50.19;100834.98;105182;1288;61477;-86
2023/06/20 06:28:10;;;;;;;;;;;;;;;32.80;49.60;100834.89;105274;1289;74525;-86
2023/06/20 06:31:00;;;;;;;12.20;11.00;;;;;;;33.02;49.37;100841.52;105223;1288;67851;-86
2023/06/20 06:33:47;;;;;;;11.90;10.80;;;;;;;33.23;48.73;100845.84;105301;1288;71523;-86
2023/06/20 06:36:34;;;;;;;11.80;10.80;;;;;;;33.54;48.26;100845.40;105170;1287;61186;-86
2023/06/20 06:39:21;;;;;;;12.40;11.00;;;;;;;33.93;47.78;100841.47;105295;1286;59683;-86
2023/06/20 06:42:07;;;;;;;11.10;10.10;;;;;;;34.19;47.54;100841.61;105430;1288;75994;-86
2023/06/20 06:44:54;;;;;;;11.20;9.70;;;;;;;34.46;47.02;100845.40;105400;1288;68163;-86
2023/06/20 06:47:40;;;;;;;12.10;10.10;;;;;;;34.95;46.54;100848.10;105464;1291;72886;-86
2023/06/20 06:50:26;;;;;;;10.00;9.20;;;;;;;35.47;45.95;100845.46;105321;1289;61208;-86
2023/06/20 06:53:12;;;;;;;;;;;;;;;35.90;45.68;100844.73;105502;1286;59131;-86
2023/06/20 06:55:58;;;;;;;10.40;9.10;;;;;;;36.16;45.59;100847.80;105331;1290;73279;-87
2023/06/20 06:58:44;;;;;;;11.30;10.30;;;;;;;36.45;45.17;100849.03;105311;1288;67293;-87
2023/06/20 07:01:30;;;;;;;10.80;9.40;;;;;;;36.88;44.54;100857.71;105287;1289;71164;-87
2023/06/20 07:04:17;;;;;;;10.70;9.90;;;;;;;37.01;44.02;100853.98;105369;1288;61138;-86
2023/06/20 07:07:03;;;;;;;10.10;9.30;;;;;;;37.27;43.46;100854.51;105363;1288;61144;-86
2023/06/20 07:09:49;;;;;;;9.60;8.70;;;;;;;38.00;42.70;100856.41;105279;1289;73159;-86
2023/06/20 07:12:35;;;;;;;9.60;8.50;;;;;;;38.79;41.85;100856.77;105289;1288;70272;-86
2023/06/20 07:15:21;;;;;;;8.00;7.30;;;;;;;39.53;41.12;100858.91;105271;1288;71421;-86
2023/06/20 07:18:08;;;;;;;10.70;7.90;;;;;;;40.16;40.24;100858.53;105393;1288;61136;-86
2023/06/20 07:20:57;;;;;;;11.00;7.10;;;;;;;40.92;39.75;100852.41;105428;1288;63048;-86
2023/06/20 07:23:43;;;;;;;7.30;6.80;;;;;;;41.58;39.12;100855.58;105240;1288;73547;-86
2023/06/20 07:26:29;;;;;;;7.60;6.90;;;;;;;41.74;38.30;100854.19;105369;1288;67524;-86
2023/06/20 07:29:15;;;;;;;8.00;7.40;;;;;;;41.18;38.33;100851.20;105362;1288;72051;-86
2023/06/20 07:32:02;;;;;;;9.10;7.60;;;;;;;40.76;38.32;100849.16;105293;1289;61064;-86
2023/06/20 07:34:48;;;;;;;7.00;6.50;;;;;;;41.10;37.51;100854.76;105296;1287;61265;-86
2023/06/20 07:37:34;;;;;;;7.40;6.90;;;;;;;40.78;36.47;100854.08;105121;1289;373897;-85
2023/06/20 07:40:20;;;;;;;9.80;7.50;;;;;;;40.16;36.20;100853.05;105380;1288;67285;-85
2023/06/20 07:43:07;;;;;;;7.50;6.90;;;;;;;39.95;36.01;100849.30;105353;1288;71867;-85
2023/06/20 07:45:53;;;;;;;7.80;7.00;;;;;;;40.55;35.38;100851.96;105344;1287;59447;-85
2023/06/20 07:48:39;;;;;;;8.00;7.20;;;;;;;41.81;34.23;100850.86;105284;1294;61040;-85
2023/06/20 07:51:25;;;;;;;7.80;7.10;;;;;;;42.79;33.10;100850.48;105428;1288;73236;-85
2023/06/20 07:54:14;;;;;;;7.70;6.90;;;;;;;43.86;32.60;100846.78;105415;1288;67329;-85
2023/06/20 07:57:00;;;;;;;8.10;7.30;;;;;;;44.95;32.13;100852.29;105310;1288;71304;-85
2023/06/20 07:59:47;;;;;;;8.00;7.30;;;;;;;45.84;31.61;100850.16;105296;1288;59633;-85
2023/06/20 08:02:34;;;;;;;7.00;6.40;;;;;;;46.64;31.16;100852.21;105360;1287;59338;-85
2023/06/20 08:05:20;;;;;;;6.60;6.10;;;;;;;47.20;30.39;100845.05;105410;1288;64756;-86
2023/06/20 08:08:06;;;;;;;8.70;6.70;;;;;;;47.65;29.88;100842.87;105351;1288;61374;-86
2023/06/20 08:10:52;;;;;;;7.00;6.60;;;;;;;48.36;29.47;100839.71;105403;1289;63629;-86
2023/06/20 08:13:38;;;;;;;7.60;7.00;;;;;;;48.95;28.70;100838.91;105422;1289;61243;-86
2023/06/20 08:16:24;;;;;;;7.00;6.50;;;;;;;49.45;28.07;100841.98;105429;1288;61376;-86
2023/06/20 08:19:10;;;;;;;7.70;7.30;;;;;;;49.87;27.26;100840.31;105224;1288;64577;-86
2023/06/20 08:21:57;;;;;;;13.10;7.70;;;;;;;50.25;26.46;100843.58;105377;1287;59833;-86
2023/06/20 08:24:43;;;;;;;8.50;7.70;;;;;;;50.46;25.94;100838.17;105474;1288;63709;-86
2023/06/20 08:27:29;;;;;;;8.50;8.00;;;;;;;50.63;25.18;100837.75;105326;1287;61228;-86
2023/06/20 08:30:15;;;;;;;8.50;7.80;;;;;;;50.94;24.62;100836.93;105158;1288;61263;-86
2023/06/20 08:33:02;;;;;;;9.30;8.60;;;;;;;51.29;23.77;100835.42;105428;1287;64509;-86
2023/06/20 08:35:50;;;;;;;9.40;8.90;;;;;;;51.62;23.43;100836.80;105403;1288;59270;-86
2023/06/20 08:38:38;;;;;;;8.90;8.00;;;;;;;51.59;22.64;100833.99;105300;1287;62460;-85
2023/06/20 08:41:25;;;;;;;8.30;7.60;;;;;;;51.63;22.02;100833.41;105368;1287;61241;-86
2023/06/20 08:44:11;;;;;;;17.80;7.40;;;;;;;51.59;21.72;100832.53;105275;1287;61264;-86
2023/06/20 08:46:57;;;;;;;9.00;8.20;;;;;;;51.14;21.21;100832.58;105432;1286;64677;-85
2023/06/20 08:49:44;;;;;;;8.10;7.50;;;;;;;50.74;20.58;100829.36;105218;1287;61128;-86
2023/06/20 08:52:31;;;;;;;7.40;6.90;;;;;;;50.57;20.30;100829.02;105273;1288;66738;-85
2023/06/20 08:55:17;;;;;;;8.00;7.50;;;;;;;50.54;20.00;100821.27;105244;1288;61319;-85
2023/06/20 08:58:07;;;;;;;8.40;7.80;;;;;;;50.75;19.57;100814.64;105375;1287;59548;-85
2023/06/20 09:00:53;;;;;;;8.40;7.70;;;;;;;50.57;19.21;100810.48;105350;1288;68816;-85
2023/06/20 09:03:40;;;;;;;7.90;7.30;;;;;;;48.85;19.00;100805.29;105331;1288;61200;-85
2023/06/20 09:06:39;;;;;;;8.30;7.10;;;;;;;46.65;19.12;100804.92;105231;1288;63950;-85
2023/06/20 09:09:25;;;;;;;7.10;6.60;;;;;;;44.50;19.22;100806.50;105227;1287;61497;-85
2023/06/20 09:12:12;;;;;;;6.60;6.10;;;;;;;43.01;19.30;100800.91;105386;1287;59260;-85
2023/06/20 09:14:58;;;;;;;6.40;5.90;;;;;;;41.71;19.32;100799.38;105373;1287;74616;-84
2023/06/20 09:17:48;;;;;;;7.20;6.60;;;;;;;40.54;19.59;100800.00;105373;1288;68131;-85
2023/06/20 09:20:35;;;;;;;7.10;6.50;;;;;;;39.44;19.64;100796.02;105270;1288;71255;-84
2023/06/20 09:23:30;;;;;;;8.60;6.00;;;;;;;38.43;19.86;100798.41;105296;1285;61329;-85
2023/06/20 09:26:17;;;;;;;7.20;6.50;;;;;;;37.56;20.12;100797.23;105216;1288;61672;-84
2023/06/20 09:29:13;;;;;;;7.10;6.30;;;;;;;36.91;20.33;100796.80;105412;1287;74220;-83
2023/06/20 09:31:59;;;;;;;7.60;6.30;;;;;;;36.36;20.54;100785.80;105362;1288;68360;-84
2023/06/20 09:34:46;;;;;;;6.30;5.70;;;;;;;35.87;20.65;100784.97;105302;1287;71362;-85
2023/06/20 09:37:49;;;;;;;6.70;6.10;;;;;;;35.22;20.95;100789.25;105365;1289;61202;-84
2023/06/20 09:40:43;;;;;;;6.50;5.90;;;;;;;34.69;21.10;100789.38;105257;1287;62324;-85
2023/06/20 09:43:29;;;;;;;7.60;6.50;;;;;;;34.36;21.63;100787.05;105402;1288;73978;-85
2023/06/20 09:46:17;;;;;;;7.00;6.40;;;;;;;34.11;21.81;100783.83;105442;1288;68344;-85
2023/06/20 09:49:04;;;;;;;6.10;5.60;;;;;;;33.79;21.98;100778.48;105186;1291;73112;-84
2023/06/20 09:51:59;;;;;;;6.70;6.20;;;;;;;33.45;22.34;100771.89;105314;1288;61131;-85
2023/06/20 09:55:02;;;;;;;6.60;6.10;;;;;;;33.21;22.30;100773.47;105384;1287;59327;-85
2023/06/20 09:57:54;;;;;;;6.40;6.00;;;;;;;33.03;22.93;100775.67;105303;1287;73285;-85
2023/06/20 10:00:40;;;;;;;5.70;5.20;;;;;;;32.93;23.00;100776.90;105355;1288;67351;-85
2023/06/20 10:03:28;;;;;;;6.30;5.80;;;;;;;32.81;23.09;100773.33;105334;1288;75424;-85
2023/06/20 10:06:16;;;;;;;6.70;6.10;;;;;;;32.71;23.15;100773.56;105106;1286;61327;-85
2023/06/20 10:09:06;;;;;;;7.70;5.80;;;;;;;32.54;23.48;100776.73;105354;1288;61246;-85
2023/06/20 10:11:53;;;;;;;6.90;6.20;;;;;;;32.47;23.59;100776.98;105249;1289;76082;-85
2023/06/20 10:14:39;;;;;;;6.90;5.80;;;;;;;32.30;23.69;100777.77;105306;1287;67857;-85
2023/06/20 10:17:34;;;;;;;6.50;6.00;;;;;;;32.18;24.06;100776.84;105218;1288;71091;-85
2023/06/20 10:20:31;;;;;;;6.40;5.90;;;;;;;32.10;24.18;100769.13;105271;1288;61168;-85
2023/06/20 10:23:20;;;;;;;6.00;5.60;;;;;;;32.11;24.40;100769.60;105394;1286;62128;-84
2023/06/20 10:26:08;;;;;;;7.30;6.60;;;;;;;32.02;24.52;100768.89;105316;1288;74505;-84
2023/06/20 10:28:57;;;;;;;6.30;5.60;;;;;;;31.97;24.51;100767.82;105013;1285;70604;-85
2023/06/20 10:32:03;;;;;;;6.10;5.50;;;;;;;31.90;24.96;100767.31;105404;1287;71103;-85
2023/06/20 10:34:52;;;;;;;7.60;6.00;;;;;;;31.92;24.97;100770.43;105371;1287;60698;-85
2023/06/20 10:37:38;;;;;;;7.40;5.90;;;;;;;31.94;25.10;100771.17;105234;1288;61259;-85
2023/06/20 10:40:29;;;;;;;6.80;6.30;;;;;;;31.96;25.07;100770.39;105215;1289;76122;-84
2023/06/20 10:43:18;;;;;;;7.20;6.00;;;;;;;31.95;25.12;100766.77;105297;1288;67360;-84
2023/06/20 10:46:04;;;;;;;6.80;6.20;;;;;;;31.96;25.36;100768.77;105261;1287;71719;-84
2023/06/20 10:48:50;;;;;;;7.90;5.80;;;;;;;31.88;25.34;100770.27;105217;1286;61308;-85
2023/06/20 10:51:43;;;;;;;;;;;;;;;31.74;25.38;100758.27;105262;1288;61222;-84
2023/06/20 10:54:34;;;;;;;6.60;6.10;;;;;;;31.62;25.48;100752.17;105447;1287;74208;-84
2023/06/20 10:57:22;;;;;;;6.50;6.00;;;;;;;31.57;25.61;100743.77;105230;1288;67832;-84
2023/06/20 11:00:14;;;;;;;6.70;6.10;;;;;;;31.57;26.07;100740.41;105263;1287;71193;-85
2023/06/20 11:03:00;;;;;;;6.90;5.80;;;;;;;31.58;26.17;100738.70;105228;1288;59305;-85
2023/06/20 11:05:51;;;;;;;;;;;;;;;31.62;26.13;100735.84;105432;1288;61757;-85
2023/06/20 11:08:43;;;;;;;7.40;5.40;;;;;;;31.62;26.12;100743.48;105368;1288;73405;-85
2023/06/20 11:11:39;;;;;;;5.90;5.30;;;;;;;31.57;26.34;100744.45;105372;1287;71728;-85
2023/06/20 11:14:25;;;;;;;6.70;6.10;;;;;;;31.54;26.37;100744.95;105399;1288;74042;-85
2023/06/20 11:17:11;;;;;;;6.60;5.90;;;;;;;31.52;26.47;100743.04;101405;1286;5179442;-84
2023/06/20 11:19:58;;;;;;;;;;;;;;;31.48;26.52;100741.27;105422;1287;61213;-84
2023/06/20 11:22:48;;;;;;;6.30;5.80;;;;;;;31.45;26.56;100740.35;105375;1288;74940;-84
2023/06/20 11:25:36;;;;;;;5.90;5.40;;;;;;;31.52;26.77;100733.92;105390;1287;69051;-84
2023/06/20 11:28:22;;;;;;;6.40;6.00;;;;;;;31.60;26.83;100729.05;105360;1288;71718;-85
2023/06/20 11:31:13;;;;;;;6.90;6.40;;;;;;;31.60;26.77;100727.42;105434;1287;61252;-85
2023/06/20 11:34:10;;;;;;;6.90;6.20;;;;;;;31.62;27.04;100724.05;105404;1287;61259;-85
2023/06/20 11:36:56;;;;;;;6.10;5.60;;;;;;;31.61;27.20;100725.19;98060;1288;10002816;-85
2023/06/20 11:39:42;;;;;;;5.80;5.30;;;;;;;31.58;27.05;100727.67;105328;1288;74028;-84
2023/06/20 11:42:33;;;;;;;6.10;5.60;;;;;;;31.49;27.17;100721.57;105397;1288;61216;-85
2023/06/20 11:45:24;;;;;;;6.90;6.10;;;;;;;31.44;27.35;100726.71;105405;1287;61255;-85
2023/06/20 11:48:13;;;;;;;6.30;5.70;;;;;;;31.45;27.50;100724.81;105372;1288;73197;-85
2023/06/20 11:51:04;;;;;;;5.80;5.20;;;;;;;31.48;27.46;100724.70;105248;1288;67278;-85
2023/06/20 11:54:01;;;;;;;6.90;5.80;;;;;;;31.48;27.51;100721.30;105374;1291;72517;-84
2023/06/20 11:56:50;;;;;;;6.90;6.30;;;;;;;31.47;27.52;100719.98;105374;1287;61183;-84
2023/06/20 11:59:36;;;;;;;7.20;5.90;;;;;;;31.48;27.70;100718.68;105680;1288;61161;-84
2023/06/20 12:02:26;;;;;;;6.90;5.70;;;;;;;31.49;27.49;100716.29;105430;1288;73243;-84
2023/06/20 12:05:15;;;;;;;6.40;5.60;;;;;;;31.41;27.51;100720.44;105375;1287;68707;-84
2023/06/20 12:08:01;;;;;;;9.00;5.80;;;;;;;31.34;27.64;100718.35;105456;1285;75334;-84
2023/06/20 12:10:48;;;;;;;6.80;6.30;;;;;;;31.29;27.75;100718.48;105304;1289;59134;-85
2023/06/20 12:13:34;;;;;;;6.50;5.90;;;;;;;31.28;27.79;100716.14;105351;1287;61262;-85
2023/06/20 12:16:21;;;;;;;6.40;5.90;;;;;;;31.32;27.92;100711.28;105381;1288;74045;-85
2023/06/20 12:19:07;;;;;;;5.90;5.50;;;;;;;31.35;27.94;100709.91;105195;1288;68066;-85
2023/06/20 12:21:53;;;;;;;6.10;5.60;;;;;;;31.39;28.04;100710.04;105364;1287;72487;-85
2023/06/20 12:24:39;;;;;;;6.50;5.80;;;;;;;31.43;28.37;100705.29;105271;1288;59765;-85
2023/06/20 12:27:26;;;;;;;6.50;6.00;;;;;;;31.52;28.23;100706.17;105202;1288;61159;-85
2023/06/20 12:30:12;;;;;;;6.60;6.10;;;;;;;31.56;28.10;100700.92;105396;1288;74423;-85
2023/06/20 12:33:01;;;;;;;;;;;;;;;31.55;28.37;100697.95;105401;1288;67698;-85
2023/06/20 12:35:47;;;;;;;5.80;5.30;;;;;;;31.56;28.17;100694.88;105360;1288;71372;-85
2023/06/20 12:38:34;;;;;;;6.50;5.70;;;;;;;31.54;28.40;100687.25;105245;1287;61030;-85
2023/06/20 12:41:21;;;;;;;7.10;6.60;;;;;;;31.56;28.47;100689.66;105291;1287;62103;-85
2023/06/20 12:44:07;;;;;;;7.70;5.80;;;;;;;31.64;28.54;100694.96;105237;1287;74650;-85
2023/06/20 12:46:53;;;;;;;6.30;5.70;;;;;;;31.70;28.51;100695.39;105313;1288;67919;-85
2023/06/20 12:49:39;;;;;;;7.30;5.80;;;;;;;31.71;28.51;100689.20;105249;1288;72921;-85